createdAt,value
2022-08-09T00:00:04.882Z,18.21
2022-08-09T00:02:34.372Z,18.19
2022-08-09T00:05:03.025Z,18.19
2022-08-09T00:07:44.293Z,18.15
2022-08-09T00:10:07.424Z,18.13
2022-08-09T00:12:34.596Z,18.13
2022-08-09T00:14:57.353Z,18.08
2022-08-09T00:18:06.018Z,18.04
2022-08-09T00:20:12.184Z,18.00
2022-08-09T00:22:35.104Z,17.99
2022-08-09T00:24:58.150Z,17.99
2022-08-09T00:27:20.068Z,17.98
2022-08-09T00:30:25.594Z,17.95
2022-08-09T00:32:27.261Z,17.92
2022-08-09T00:34:52.042Z,17.90
2022-08-09T00:37:15.154Z,17.87
2022-08-09T00:40:09.582Z,17.84
2022-08-09T00:44:11.381Z,17.80
2022-08-09T00:45:03.726Z,17.76
2022-08-09T00:47:39.736Z,17.75
2022-08-09T00:50:01.956Z,17.72
2022-08-09T00:52:30.475Z,17.70
2022-08-09T00:54:53.607Z,17.69
2022-08-09T00:57:33.614Z,17.67
2022-08-09T00:59:58.374Z,17.67
2022-08-09T01:02:30.082Z,17.66
2022-08-09T01:05:14.125Z,17.63
2022-08-09T01:08:11.363Z,17.63
2022-08-09T01:11:00.966Z,17.60
2022-08-09T01:13:58.962Z,17.58
2022-08-09T01:16:30.047Z,17.53
2022-08-09T01:19:01.929Z,17.51
2022-08-09T01:21:53.694Z,17.49
2022-08-09T01:24:40.136Z,17.44
2022-08-09T01:27:13.425Z,17.43
2022-08-09T01:29:56.365Z,17.43
2022-08-09T01:32:30.715Z,17.43
2022-08-09T01:34:59.792Z,17.41
2022-08-09T01:37:42.789Z,17.37
2022-08-09T01:40:23.311Z,17.33
2022-08-09T01:42:51.433Z,17.30
2022-08-09T01:45:16.234Z,17.30
2022-08-09T01:47:44.519Z,17.26
2022-08-09T01:50:09.721Z,17.25
2022-08-09T01:52:35.366Z,17.24
2022-08-09T01:55:05.590Z,17.23
2022-08-09T01:57:40.370Z,17.22
2022-08-09T02:00:34.675Z,17.20
2022-08-09T02:02:53.650Z,17.16
2022-08-09T02:05:19.595Z,17.13
2022-08-09T02:08:40.140Z,17.12
2022-08-09T02:10:51.765Z,17.11
2022-08-09T02:13:17.982Z,17.11
2022-08-09T02:15:52.870Z,17.10
2022-08-09T02:18:26.927Z,17.09
2022-08-09T02:20:57.823Z,17.09
2022-08-09T02:23:48.531Z,17.05
2022-08-09T02:26:25.094Z,16.98
2022-08-09T02:28:55.334Z,16.90
2022-08-09T02:31:26.048Z,16.85
2022-08-09T02:33:58.451Z,16.82
2022-08-09T02:36:42.073Z,16.80
2022-08-09T02:39:33.240Z,16.79
2022-08-09T02:42:05.847Z,16.74
2022-08-09T02:44:36.340Z,16.69
2022-08-09T02:47:04.404Z,16.65
2022-08-09T02:49:38.822Z,16.63
2022-08-09T02:52:07.829Z,16.61
2022-08-09T02:54:34.189Z,16.61
2022-08-09T02:56:59.439Z,16.57
2022-08-09T02:59:39.179Z,16.54
2022-08-09T03:02:23.909Z,16.53
2022-08-09T03:04:50.840Z,16.54
2022-08-09T03:07:15.714Z,16.55
2022-08-09T03:09:42.611Z,16.53
2022-08-09T03:12:10.546Z,16.52
2022-08-09T03:14:36.589Z,16.52
2022-08-09T03:17:01.840Z,16.49
2022-08-09T03:19:52.712Z,16.47
2022-08-09T03:22:12.293Z,16.43
2022-08-09T03:24:51.904Z,16.39
2022-08-09T03:27:17.196Z,16.35
2022-08-09T03:29:57.373Z,16.34
2022-08-09T03:32:26.142Z,16.33
2022-08-09T03:34:48.279Z,16.33
2022-08-09T03:37:56.205Z,16.33
2022-08-09T03:39:57.887Z,16.31
2022-08-09T03:42:20.049Z,16.31
2022-08-09T03:44:50.672Z,16.30
2022-08-09T03:47:12.876Z,16.29
2022-08-09T03:49:37.824Z,16.26
2022-08-09T03:52:03.780Z,16.25
2022-08-09T03:54:32.146Z,16.24
2022-08-09T03:56:54.628Z,16.22
2022-08-09T03:59:21.025Z,16.20
2022-08-09T04:01:54.188Z,16.20
2022-08-09T04:04:18.175Z,16.18
2022-08-09T04:06:40.215Z,16.16
2022-08-09T04:09:13.678Z,16.14
2022-08-09T04:12:11.874Z,16.11
2022-08-09T04:15:00.563Z,16.07
2022-08-09T04:17:24.369Z,16.06
2022-08-09T04:19:51.555Z,16.05
2022-08-09T04:22:18.706Z,16.04
2022-08-09T04:24:43.773Z,16.03
2022-08-09T04:27:06.410Z,16.05
2022-08-09T04:29:30.788Z,16.07
2022-08-09T04:31:54.573Z,16.06
2022-08-09T04:34:30.775Z,16.07
2022-08-09T04:36:53.854Z,16.07
2022-08-09T04:39:15.706Z,16.08
2022-08-09T04:41:43.964Z,16.07
2022-08-09T04:44:11.033Z,16.09
2022-08-09T04:46:37.596Z,16.12
2022-08-09T04:49:15.110Z,16.16
2022-08-09T04:51:37.035Z,16.18
2022-08-09T04:53:58.897Z,16.20
2022-08-09T04:56:20.724Z,16.22
2022-08-09T04:58:48.024Z,16.22
2022-08-09T05:01:16.295Z,16.23
2022-08-09T05:03:43.651Z,16.25
2022-08-09T05:06:07.543Z,16.29
2022-08-09T05:08:29.515Z,16.30
2022-08-09T05:10:51.328Z,16.31
2022-08-09T05:13:14.215Z,16.33
2022-08-09T05:15:43.223Z,16.36
2022-08-09T05:18:38.009Z,16.37
2022-08-09T05:20:52.175Z,16.39
2022-08-09T05:23:54.845Z,16.43
2022-08-09T05:25:56.867Z,16.45
2022-08-09T05:28:20.468Z,16.49
2022-08-09T05:30:47.902Z,16.49
2022-08-09T05:33:10.850Z,16.53
2022-08-09T05:35:32.972Z,16.57
2022-08-09T05:38:08.610Z,16.62
2022-08-09T05:40:30.596Z,16.68
2022-08-09T05:42:52.432Z,16.74
2022-08-09T05:45:15.368Z,16.80
2022-08-09T05:47:45.627Z,16.84
2022-08-09T05:50:26.786Z,16.93
2022-08-09T05:52:54.980Z,17.03
2022-08-09T05:55:21.032Z,17.13
2022-08-09T05:57:50.839Z,17.22
2022-08-09T06:00:18.402Z,17.34
2022-08-09T06:02:42.348Z,17.43
2022-08-09T06:05:09.529Z,17.52
2022-08-09T06:07:31.436Z,17.62
2022-08-09T06:10:02.107Z,17.70
2022-08-09T06:12:26.245Z,17.77
2022-08-09T06:14:48.742Z,17.85
2022-08-09T06:17:12.238Z,17.94
2022-08-09T06:19:35.548Z,18.04
2022-08-09T06:21:59.310Z,18.12
2022-08-09T06:24:21.626Z,18.18
2022-08-09T06:26:45.247Z,18.26
2022-08-09T06:29:08.261Z,18.32
2022-08-09T06:31:40.618Z,18.38
2022-08-09T06:34:22.861Z,18.43
2022-08-09T06:36:45.236Z,18.50
2022-08-09T06:39:11.648Z,18.60
2022-08-09T06:42:08.200Z,18.67
2022-08-09T06:44:18.058Z,18.74
2022-08-09T06:46:41.472Z,18.84
2022-08-09T06:49:03.572Z,18.98
2022-08-09T06:51:25.334Z,19.08
2022-08-09T06:53:50.025Z,19.16
2022-08-09T06:56:12.330Z,19.17
2022-08-09T07:00:52.455Z,19.23
2022-08-09T07:01:16.849Z,19.34
2022-08-09T07:03:39.619Z,19.43
2022-08-09T07:06:14.211Z,19.57
2022-08-09T07:08:37.155Z,19.71
2022-08-09T07:10:59.314Z,19.83
2022-08-09T07:13:27.837Z,19.94
2022-08-09T07:16:34.790Z,19.99
2022-08-09T07:18:32.977Z,20.08
2022-08-09T07:20:55.073Z,20.17
2022-08-09T07:23:18.768Z,20.26
2022-08-09T07:25:43.539Z,20.38
2022-08-09T07:28:05.633Z,20.47
2022-08-09T07:30:32.424Z,20.58
2022-08-09T07:32:55.078Z,20.68
2022-08-09T07:35:18.022Z,20.79
2022-08-09T07:37:45.616Z,20.94
2022-08-09T07:40:09.402Z,21.08
2022-08-09T07:42:35.184Z,21.22
2022-08-09T07:45:02.464Z,21.30
2022-08-09T07:47:28.428Z,21.40
2022-08-09T07:49:52.313Z,21.52
2022-08-09T07:52:27.856Z,21.65
2022-08-09T07:54:51.463Z,21.69
2022-08-09T07:57:15.164Z,21.77
2022-08-09T07:59:52.215Z,21.87
2022-08-09T08:02:19.877Z,22.04
2022-08-09T08:04:41.938Z,22.19
2022-08-09T08:08:06.041Z,22.26
2022-08-09T08:09:55.272Z,22.26
2022-08-09T08:12:31.060Z,22.33
2022-08-09T08:14:53.192Z,22.43
2022-08-09T08:17:24.819Z,22.55
2022-08-09T08:19:56.942Z,22.70
2022-08-09T08:22:19.848Z,22.75
2022-08-09T08:24:55.636Z,22.78
2022-08-09T08:27:19.353Z,22.84
2022-08-09T08:29:49.947Z,22.86
2022-08-09T08:32:12.566Z,22.84
2022-08-09T08:34:46.773Z,22.87
2022-08-09T08:37:15.637Z,22.98
2022-08-09T08:39:43.548Z,23.06
2022-08-09T08:42:06.877Z,23.16
2022-08-09T08:44:29.783Z,23.25
2022-08-09T08:46:59.429Z,23.37
2022-08-09T08:49:33.420Z,23.51
2022-08-09T08:52:03.968Z,23.64
2022-08-09T08:54:30.331Z,23.71
2022-08-09T08:56:53.221Z,23.74
2022-08-09T08:59:19.706Z,23.78
2022-08-09T09:01:52.665Z,23.88
2022-08-09T09:04:26.905Z,23.90
2022-08-09T09:06:58.115Z,23.96
2022-08-09T09:09:57.784Z,24.08
2022-08-09T09:12:08.946Z,24.17
2022-08-09T09:14:39.703Z,24.27
2022-08-09T09:17:03.376Z,24.35
2022-08-09T09:19:41.058Z,24.41
2022-08-09T09:22:11.978Z,24.52
2022-08-09T09:24:39.819Z,24.63
2022-08-09T09:27:08.996Z,24.69
2022-08-09T09:30:11.606Z,24.81
2022-08-09T09:32:32.286Z,24.97
2022-08-09T09:35:08.985Z,25.08
2022-08-09T09:37:31.843Z,25.07
2022-08-09T09:39:56.727Z,25.06
2022-08-09T09:42:25.973Z,25.02
2022-08-09T09:45:08.102Z,25.00
2022-08-09T09:47:32.490Z,24.97
2022-08-09T09:50:15.231Z,25.10
2022-08-09T09:52:54.632Z,25.29
2022-08-09T09:55:28.000Z,25.36
2022-08-09T09:58:16.774Z,25.34
2022-08-09T10:01:38.119Z,25.25
2022-08-09T10:04:08.869Z,25.26
2022-08-09T10:06:47.125Z,25.35
2022-08-09T10:09:23.046Z,25.46
2022-08-09T10:11:59.074Z,25.53
2022-08-09T10:14:33.053Z,25.63
2022-08-09T10:17:11.234Z,25.73
2022-08-09T10:19:38.712Z,25.79
2022-08-09T10:22:01.755Z,25.81
2022-08-09T10:24:25.528Z,25.87
2022-08-09T10:26:59.268Z,25.89
2022-08-09T10:30:28.308Z,25.85
2022-08-09T10:34:47.561Z,25.87
2022-08-09T10:37:09.960Z,26.02
2022-08-09T10:39:40.615Z,26.21
2022-08-09T10:42:11.147Z,26.25
2022-08-09T10:44:35.572Z,26.26
2022-08-09T10:48:20.123Z,26.24
2022-08-09T10:50:30.671Z,26.17
2022-08-09T10:53:14.393Z,26.14
2022-08-09T10:55:55.025Z,26.17
2022-08-09T10:58:37.104Z,26.37
2022-08-09T11:03:02.388Z,26.61
2022-08-09T11:04:27.917Z,26.82
2022-08-09T11:07:00.326Z,26.87
2022-08-09T11:09:47.447Z,26.94
2022-08-09T11:12:29.907Z,26.97
2022-08-09T11:15:25.052Z,26.99
2022-08-09T11:18:03.613Z,27.17
2022-08-09T11:20:45.504Z,27.21
2022-08-09T11:23:10.144Z,27.18
2022-08-09T11:25:44.543Z,27.11
2022-08-09T11:28:56.687Z,27.10
2022-08-09T11:31:43.174Z,27.17
2022-08-09T11:34:20.211Z,27.23
2022-08-09T11:36:44.336Z,27.26
2022-08-09T11:39:06.761Z,27.18
2022-08-09T11:41:38.327Z,27.16
2022-08-09T11:44:02.402Z,27.21
2022-08-09T11:46:32.775Z,27.16
2022-08-09T11:48:58.404Z,27.17
2022-08-09T11:52:56.959Z,27.20
2022-08-09T11:54:28.564Z,27.29
2022-08-09T11:57:56.433Z,27.41
2022-08-09T12:00:16.024Z,27.56
2022-08-09T12:02:40.722Z,27.57
2022-08-09T12:05:02.894Z,27.67
2022-08-09T12:07:28.988Z,27.71
2022-08-09T12:10:04.263Z,27.78
2022-08-09T12:12:38.418Z,27.85
2022-08-09T12:15:07.745Z,27.84
2022-08-09T12:17:42.169Z,27.76
2022-08-09T12:20:22.265Z,27.81
2022-08-09T12:22:45.952Z,27.98
2022-08-09T12:25:14.892Z,28.07
2022-08-09T12:29:10.493Z,28.12
2022-08-09T12:30:35.403Z,28.26
2022-08-09T12:33:04.536Z,28.39
2022-08-09T12:35:26.521Z,28.35
2022-08-09T12:37:52.123Z,28.27
2022-08-09T12:40:17.989Z,28.27
2022-08-09T12:42:45.107Z,28.28
2022-08-09T12:45:33.356Z,28.33
2022-08-09T12:47:52.364Z,28.38
2022-08-09T12:50:23.669Z,28.51
2022-08-09T12:53:08.065Z,28.62
2022-08-09T12:56:14.119Z,28.74
2022-08-09T12:58:24.347Z,28.88
2022-08-09T13:00:49.970Z,28.86
2022-08-09T13:03:24.657Z,28.88
2022-08-09T13:06:14.736Z,28.85
2022-08-09T13:08:40.222Z,28.66
2022-08-09T13:11:23.144Z,28.56
2022-08-09T13:14:38.002Z,28.56
2022-08-09T13:16:48.119Z,28.61
2022-08-09T13:19:24.951Z,28.76
2022-08-09T13:22:36.784Z,28.87
2022-08-09T13:25:07.491Z,28.84
2022-08-09T13:27:40.106Z,28.76
2022-08-09T13:30:49.149Z,28.73
2022-08-09T13:33:00.494Z,28.66
2022-08-09T13:35:34.252Z,28.64
2022-08-09T13:37:56.943Z,28.67
2022-08-09T13:41:51.427Z,28.67
2022-08-09T13:43:04.949Z,28.64
2022-08-09T13:45:32.164Z,28.69
2022-08-09T13:48:10.824Z,28.82
2022-08-09T13:50:33.007Z,28.90
2022-08-09T13:52:54.811Z,28.90
2022-08-09T13:55:17.958Z,28.91
2022-08-09T13:57:56.068Z,29.03
2022-08-09T14:00:21.501Z,28.96
2022-08-09T14:03:04.146Z,28.88
2022-08-09T14:05:59.363Z,28.78
2022-08-09T14:08:17.385Z,28.86
2022-08-09T14:10:49.267Z,28.92
2022-08-09T14:13:28.035Z,29.04
2022-08-09T14:16:10.130Z,29.12
2022-08-09T14:18:33.125Z,29.07
2022-08-09T14:20:55.417Z,29.13
2022-08-09T14:23:20.362Z,29.13
2022-08-09T14:26:01.717Z,29.06
2022-08-09T14:28:27.937Z,28.97
2022-08-09T14:30:50.031Z,28.98
2022-08-09T14:33:12.000Z,29.13
2022-08-09T14:35:38.707Z,29.25
2022-08-09T14:38:14.912Z,29.26
2022-08-09T14:41:01.210Z,29.30
2022-08-09T14:43:21.031Z,29.31
2022-08-09T14:46:54.311Z,29.23
2022-08-09T14:48:26.696Z,29.19
2022-08-09T14:50:49.069Z,29.25
2022-08-09T14:53:13.873Z,29.23
2022-08-09T14:55:35.950Z,29.18
2022-08-09T14:57:58.088Z,29.22
2022-08-09T15:00:20.115Z,29.22
2022-08-09T15:02:42.380Z,29.16
2022-08-09T15:05:10.575Z,29.20
2022-08-09T15:07:35.395Z,29.25
2022-08-09T15:10:04.609Z,29.17
2022-08-09T15:12:33.087Z,29.12
2022-08-09T15:14:55.032Z,29.07
2022-08-09T15:17:17.674Z,29.09
2022-08-09T15:19:59.813Z,29.16
2022-08-09T15:22:22.026Z,29.11
2022-08-09T15:24:47.840Z,29.06
2022-08-09T15:27:10.225Z,29.05
2022-08-09T15:30:56.076Z,29.07
2022-08-09T15:32:29.000Z,29.07
2022-08-09T15:34:53.287Z,28.98
2022-08-09T15:37:37.278Z,28.95
2022-08-09T15:40:19.994Z,29.02
2022-08-09T15:42:44.435Z,28.96
2022-08-09T15:45:07.361Z,28.93
2022-08-09T15:47:51.890Z,28.98
2022-08-09T15:50:18.232Z,29.02
2022-08-09T15:52:42.599Z,29.09
2022-08-09T15:55:20.204Z,29.00
2022-08-09T15:57:51.257Z,28.96
2022-08-09T16:00:24.473Z,29.05
2022-08-09T16:02:54.083Z,29.10
2022-08-09T16:05:19.643Z,29.05
2022-08-09T16:07:45.817Z,28.98
2022-08-09T16:10:11.440Z,28.99
2022-08-09T16:12:53.498Z,29.02
2022-08-09T16:16:10.076Z,29.00
2022-08-09T16:17:58.744Z,28.97
2022-08-09T16:20:20.769Z,28.94
2022-08-09T16:22:52.100Z,28.89
2022-08-09T16:25:15.780Z,28.86
2022-08-09T16:27:39.153Z,28.77
2022-08-09T16:30:06.217Z,28.75
2022-08-09T16:32:49.735Z,28.75
2022-08-09T16:35:19.248Z,28.73
2022-08-09T16:37:59.438Z,28.65
2022-08-09T16:40:39.875Z,28.57
2022-08-09T16:43:04.526Z,28.55
2022-08-09T16:45:27.577Z,28.58
2022-08-09T16:48:38.472Z,28.60
2022-08-09T16:50:34.718Z,28.52
2022-08-09T16:52:56.905Z,28.48
2022-08-09T16:55:18.980Z,28.44
2022-08-09T16:58:08.780Z,28.42
2022-08-09T17:00:24.388Z,28.39
2022-08-09T17:02:47.052Z,28.37
2022-08-09T17:05:13.948Z,28.31
2022-08-09T17:08:43.599Z,28.23
2022-08-09T17:10:25.823Z,28.14
2022-08-09T17:12:48.368Z,28.08
2022-08-09T17:15:30.526Z,28.08
2022-08-09T17:18:00.655Z,28.11
2022-08-09T17:20:32.574Z,28.10
2022-08-09T17:23:00.128Z,28.01
2022-08-09T17:25:25.360Z,27.87
2022-08-09T17:27:55.217Z,27.83
2022-08-09T17:30:17.261Z,27.84
2022-08-09T17:32:45.527Z,27.80
2022-08-09T17:35:11.701Z,27.78
2022-08-09T17:38:14.612Z,27.77
2022-08-09T17:40:17.902Z,27.73
2022-08-09T17:42:41.996Z,27.68
2022-08-09T17:45:06.584Z,27.68
2022-08-09T17:47:49.386Z,27.66
2022-08-09T17:50:17.296Z,27.60
2022-08-09T17:52:54.111Z,27.50
2022-08-09T17:55:16.087Z,27.47
2022-08-09T17:58:03.085Z,27.51
2022-08-09T18:00:20.880Z,27.58
2022-08-09T18:03:02.785Z,27.70
2022-08-09T18:05:29.244Z,27.76
2022-08-09T18:08:00.844Z,27.85
2022-08-09T18:10:24.950Z,27.95
2022-08-09T18:13:40.825Z,28.15
2022-08-09T18:16:04.874Z,28.46
2022-08-09T18:18:25.439Z,28.73
2022-08-09T18:20:54.930Z,28.97
2022-08-09T18:24:09.447Z,29.21
2022-08-09T18:26:06.071Z,29.31
2022-08-09T18:30:40.624Z,29.11
2022-08-09T18:31:12.483Z,28.73
2022-08-09T18:33:34.542Z,28.37
2022-08-09T18:35:59.721Z,28.02
2022-08-09T18:38:22.644Z,27.72
2022-08-09T18:40:45.107Z,27.40
2022-08-09T18:43:06.951Z,27.13
2022-08-09T18:46:47.709Z,26.86
2022-08-09T18:48:11.121Z,26.62
2022-08-09T18:50:39.949Z,26.40
2022-08-09T18:53:02.268Z,26.21
2022-08-09T18:55:45.658Z,26.01
2022-08-09T18:58:06.512Z,25.83
2022-08-09T19:00:28.962Z,25.70
2022-08-09T19:02:54.066Z,25.59
2022-08-09T19:05:28.669Z,25.49
2022-08-09T19:08:09.668Z,25.35
2022-08-09T19:10:37.810Z,25.25
2022-08-09T19:13:18.004Z,25.13
2022-08-09T19:15:45.150Z,25.00
2022-08-09T19:18:17.303Z,24.91
2022-08-09T19:20:58.629Z,24.80
2022-08-09T19:24:33.280Z,24.72
2022-08-09T19:26:05.552Z,24.63
2022-08-09T19:28:29.016Z,24.55
2022-08-09T19:30:53.367Z,24.47
2022-08-09T19:33:19.391Z,24.39
2022-08-09T19:35:57.323Z,24.33
2022-08-09T19:38:20.535Z,24.24
2022-08-09T19:40:42.470Z,24.14
2022-08-09T19:43:10.211Z,24.08
2022-08-09T19:45:45.183Z,24.00
2022-08-09T19:48:11.033Z,23.90
2022-08-09T19:50:48.951Z,23.83
2022-08-09T19:53:11.857Z,23.77
2022-08-09T19:56:01.868Z,23.72
2022-08-09T19:58:17.131Z,23.65
2022-08-09T20:00:51.641Z,23.57
2022-08-09T20:04:18.263Z,23.50
2022-08-09T20:05:57.038Z,23.45
2022-08-09T20:08:25.080Z,23.39
2022-08-09T20:10:56.083Z,23.34
2022-08-09T20:13:20.708Z,23.31
2022-08-09T20:16:38.493Z,23.25
2022-08-09T20:18:28.023Z,23.16
2022-08-09T20:20:54.153Z,23.10
2022-08-09T20:23:19.476Z,23.06
2022-08-09T20:25:52.056Z,22.98
2022-08-09T20:28:24.384Z,22.90
2022-08-09T20:30:56.097Z,22.84
2022-08-09T20:33:18.093Z,22.82
2022-08-09T20:35:40.039Z,22.81
2022-08-09T20:38:22.599Z,22.78
2022-08-09T20:40:49.635Z,22.73
2022-08-09T20:43:19.059Z,22.70
2022-08-09T20:46:01.158Z,22.65
2022-08-09T20:48:31.337Z,22.61
2022-08-09T20:50:58.117Z,22.58
2022-08-09T20:53:37.201Z,22.53
2022-08-09T20:56:02.345Z,22.49
2022-08-09T20:58:25.064Z,22.47
2022-08-09T21:01:14.353Z,22.45
2022-08-09T21:04:07.538Z,22.44
2022-08-09T21:06:19.274Z,22.42
2022-08-09T21:08:44.598Z,22.41
2022-08-09T21:13:59.369Z,22.35
2022-08-09T21:16:22.123Z,22.31
2022-08-09T21:19:08.287Z,22.28
2022-08-09T21:21:52.860Z,22.25
2022-08-09T21:24:28.337Z,22.20
2022-08-09T21:26:52.392Z,22.17
2022-08-09T21:29:14.509Z,22.12
2022-08-09T21:31:48.533Z,22.09
2022-08-09T21:34:12.178Z,22.06
2022-08-09T21:36:34.178Z,22.02
2022-08-09T21:38:59.261Z,21.97
2022-08-09T21:41:21.560Z,21.92
2022-08-09T21:44:04.393Z,21.87
2022-08-09T21:46:27.880Z,21.80
2022-08-09T21:48:55.956Z,21.76
2022-08-09T21:51:24.060Z,21.69
2022-08-09T21:53:46.538Z,21.65
2022-08-09T21:56:15.137Z,21.61
2022-08-09T21:58:50.423Z,21.55
2022-08-09T22:01:26.151Z,21.50
2022-08-09T22:03:59.040Z,21.43
2022-08-09T22:06:21.528Z,21.38
2022-08-09T22:08:44.208Z,21.31
2022-08-09T22:11:49.878Z,21.25
2022-08-09T22:13:48.572Z,21.19
2022-08-09T22:16:13.034Z,21.15
2022-08-09T22:18:52.848Z,21.11
2022-08-09T22:21:22.429Z,21.06
2022-08-09T22:23:59.496Z,21.01
2022-08-09T22:26:34.830Z,20.97
2022-08-09T22:29:00.492Z,20.94
2022-08-09T22:31:29.312Z,20.94
2022-08-09T22:33:55.685Z,20.94
2022-08-09T22:36:19.435Z,20.90
2022-08-09T22:38:41.524Z,20.85
2022-08-09T22:41:06.107Z,20.80
2022-08-09T22:44:02.248Z,20.75
2022-08-09T22:48:17.010Z,20.70
2022-08-09T22:48:52.193Z,20.64
2022-08-09T22:51:17.912Z,20.61
2022-08-09T22:54:02.939Z,20.57
2022-08-09T22:56:30.855Z,20.52
2022-08-09T22:58:55.479Z,20.48
2022-08-09T23:01:19.465Z,20.46
2022-08-09T23:04:03.803Z,20.43
2022-08-09T23:06:29.899Z,20.38
2022-08-09T23:08:57.868Z,20.33
2022-08-09T23:11:22.191Z,20.29
2022-08-09T23:13:49.450Z,20.28
2022-08-09T23:16:14.271Z,20.25
2022-08-09T23:18:36.073Z,20.22
2022-08-09T23:20:58.152Z,20.15
2022-08-09T23:23:20.006Z,20.10
2022-08-09T23:25:42.031Z,20.05
2022-08-09T23:28:15.636Z,20.02
2022-08-09T23:30:37.929Z,19.95
2022-08-09T23:32:59.735Z,19.92
2022-08-09T23:35:22.113Z,19.90
2022-08-09T23:37:43.994Z,19.88
2022-08-09T23:40:06.620Z,19.85
2022-08-09T23:42:28.484Z,19.83
2022-08-09T23:44:50.356Z,19.81
2022-08-09T23:47:12.509Z,19.76
2022-08-09T23:49:34.277Z,19.69
2022-08-09T23:51:56.316Z,19.63
2022-08-09T23:54:18.184Z,19.58
2022-08-09T23:56:54.591Z,19.54
2022-08-09T23:59:17.856Z,19.50
